sensor_id;sensor_type;location;lat;lon;timestamp;temperature;humidity
37658;DHT22;23500;53.268;8.308;2023-06-04T00:01:06;18.90;62.20
37658;DHT22;23500;53.268;8.308;2023-06-04T00:03:33;18.80;62.40
37658;DHT22;23500;53.268;8.308;2023-06-04T00:05:59;18.80;62.20
37658;DHT22;23500;53.268;8.308;2023-06-04T00:08:25;18.80;62.40
37658;DHT22;23500;53.268;8.308;2023-06-04T00:10:51;18.80;62.10
37658;DHT22;23500;53.268;8.308;2023-06-04T00:13:17;18.80;62.50
37658;DHT22;23500;53.268;8.308;2023-06-04T00:15:42;18.80;62.60
37658;DHT22;23500;53.268;8.308;2023-06-04T00:18:08;18.80;62.70
37658;DHT22;23500;53.268;8.308;2023-06-04T00:20:36;18.70;62.60
37658;DHT22;23500;53.268;8.308;2023-06-04T00:23:02;18.70;62.90
37658;DHT22;23500;53.268;8.308;2023-06-04T00:25:28;18.70;62.90
37658;DHT22;23500;53.268;8.308;2023-06-04T00:27:53;18.70;62.90
37658;DHT22;23500;53.268;8.308;2023-06-04T00:30:19;18.70;63.10
37658;DHT22;23500;53.268;8.308;2023-06-04T00:32:45;18.70;63.00
37658;DHT22;23500;53.268;8.308;2023-06-04T00:35:12;18.70;62.90
37658;DHT22;23500;53.268;8.308;2023-06-04T00:37:38;18.70;63.00
37658;DHT22;23500;53.268;8.308;2023-06-04T00:40:04;18.70;63.10
37658;DHT22;23500;53.268;8.308;2023-06-04T00:42:31;18.70;62.80
37658;DHT22;23500;53.268;8.308;2023-06-04T00:44:57;18.60;62.90
37658;DHT22;23500;53.268;8.308;2023-06-04T00:47:23;18.60;63.10
37658;DHT22;23500;53.268;8.308;2023-06-04T00:49:49;18.60;62.90
37658;DHT22;23500;53.268;8.308;2023-06-04T00:52:15;18.60;62.90
37658;DHT22;23500;53.268;8.308;2023-06-04T00:54:41;18.60;62.70
37658;DHT22;23500;53.268;8.308;2023-06-04T00:57:07;18.60;63.10
37658;DHT22;23500;53.268;8.308;2023-06-04T00:59:36;18.60;62.90
37658;DHT22;23500;53.268;8.308;2023-06-04T01:02:09;18.60;62.90
37658;DHT22;23500;53.268;8.308;2023-06-04T01:07:07;18.50;63.30
37658;DHT22;23500;53.268;8.308;2023-06-04T01:09:35;18.60;63.10
37658;DHT22;23500;53.268;8.308;2023-06-04T01:12:04;18.50;63.20
37658;DHT22;23500;53.268;8.308;2023-06-04T01:14:30;18.50;63.30
37658;DHT22;23500;53.268;8.308;2023-06-04T01:16:59;18.50;63.10
37658;DHT22;23500;53.268;8.308;2023-06-04T01:22:04;18.50;63.40
37658;DHT22;23500;53.268;8.308;2023-06-04T01:24:34;18.40;63.40
37658;DHT22;23500;53.268;8.308;2023-06-04T01:27:03;18.40;63.60
37658;DHT22;23500;53.268;8.308;2023-06-04T01:29:30;18.40;63.70
37658;DHT22;23500;53.268;8.308;2023-06-04T01:31:56;18.40;63.60
37658;DHT22;23500;53.268;8.308;2023-06-04T01:34:22;18.40;63.70
37658;DHT22;23500;53.268;8.308;2023-06-04T01:36:48;18.40;63.60
37658;DHT22;23500;53.268;8.308;2023-06-04T01:39:14;18.40;63.80
37658;DHT22;23500;53.268;8.308;2023-06-04T01:41:39;18.40;63.90
37658;DHT22;23500;53.268;8.308;2023-06-04T01:44:05;18.40;63.90
37658;DHT22;23500;53.268;8.308;2023-06-04T01:46:31;18.40;63.80
37658;DHT22;23500;53.268;8.308;2023-06-04T01:48:56;18.30;63.80
37658;DHT22;23500;53.268;8.308;2023-06-04T01:51:22;18.40;63.70
37658;DHT22;23500;53.268;8.308;2023-06-04T01:53:47;18.30;63.70
37658;DHT22;23500;53.268;8.308;2023-06-04T01:56:13;18.30;63.70
37658;DHT22;23500;53.268;8.308;2023-06-04T01:58:39;18.30;63.70
37658;DHT22;23500;53.268;8.308;2023-06-04T02:01:05;18.30;63.70
37658;DHT22;23500;53.268;8.308;2023-06-04T02:03:32;18.30;63.90
37658;DHT22;23500;53.268;8.308;2023-06-04T02:06:03;18.30;63.70
37658;DHT22;23500;53.268;8.308;2023-06-04T02:08:30;18.30;63.80
37658;DHT22;23500;53.268;8.308;2023-06-04T02:10:56;18.20;63.80
37658;DHT22;23500;53.268;8.308;2023-06-04T02:13:21;18.20;63.90
37658;DHT22;23500;53.268;8.308;2023-06-04T02:15:47;18.20;63.80
37658;DHT22;23500;53.268;8.308;2023-06-04T02:18:17;18.20;63.90
37658;DHT22;23500;53.268;8.308;2023-06-04T02:20:44;18.20;64.10
37658;DHT22;23500;53.268;8.308;2023-06-04T02:23:10;18.20;64.20
37658;DHT22;23500;53.268;8.308;2023-06-04T02:25:36;18.20;64.00
37658;DHT22;23500;53.268;8.308;2023-06-04T02:28:02;18.10;64.20
37658;DHT22;23500;53.268;8.308;2023-06-04T02:30:27;18.20;64.50
37658;DHT22;23500;53.268;8.308;2023-06-04T02:32:53;18.20;64.20
37658;DHT22;23500;53.268;8.308;2023-06-04T02:35:20;18.10;64.40
37658;DHT22;23500;53.268;8.308;2023-06-04T02:37:48;18.20;64.60
37658;DHT22;23500;53.268;8.308;2023-06-04T02:40:14;18.10;64.60
37658;DHT22;23500;53.268;8.308;2023-06-04T02:42:40;18.10;64.90
37658;DHT22;23500;53.268;8.308;2023-06-04T02:45:06;18.10;64.80
37658;DHT22;23500;53.268;8.308;2023-06-04T02:47:32;18.10;64.60
37658;DHT22;23500;53.268;8.308;2023-06-04T02:49:57;18.10;64.80
37658;DHT22;23500;53.268;8.308;2023-06-04T02:52:23;18.10;64.70
37658;DHT22;23500;53.268;8.308;2023-06-04T02:54:51;18.10;64.60
37658;DHT22;23500;53.268;8.308;2023-06-04T02:57:16;18.10;65.00
37658;DHT22;23500;53.268;8.308;2023-06-04T02:59:42;18.10;64.90
37658;DHT22;23500;53.268;8.308;2023-06-04T03:02:07;18.00;64.80
37658;DHT22;23500;53.268;8.308;2023-06-04T03:04:34;18.10;65.00
37658;DHT22;23500;53.268;8.308;2023-06-04T03:07:04;18.10;64.90
37658;DHT22;23500;53.268;8.308;2023-06-04T03:09:30;18.00;64.80
37658;DHT22;23500;53.268;8.308;2023-06-04T03:12:03;18.00;64.90
37658;DHT22;23500;53.268;8.308;2023-06-04T03:14:29;18.00;65.20
37658;DHT22;23500;53.268;8.308;2023-06-04T03:17:02;18.00;65.00
37658;DHT22;23500;53.268;8.308;2023-06-04T03:19:36;18.00;65.10
37658;DHT22;23500;53.268;8.308;2023-06-04T03:22:03;18.00;65.20
37658;DHT22;23500;53.268;8.308;2023-06-04T03:24:36;18.00;65.20
37658;DHT22;23500;53.268;8.308;2023-06-04T03:27:06;18.00;65.10
37658;DHT22;23500;53.268;8.308;2023-06-04T03:29:32;18.00;65.00
37658;DHT22;23500;53.268;8.308;2023-06-04T03:32:00;17.90;64.80
37658;DHT22;23500;53.268;8.308;2023-06-04T03:34:26;17.90;64.60
37658;DHT22;23500;53.268;8.308;2023-06-04T03:36:53;17.90;64.80
37658;DHT22;23500;53.268;8.308;2023-06-04T03:39:19;17.90;65.20
37658;DHT22;23500;53.268;8.308;2023-06-04T03:41:45;17.90;64.90
37658;DHT22;23500;53.268;8.308;2023-06-04T03:44:14;17.90;65.20
37658;DHT22;23500;53.268;8.308;2023-06-04T03:46:41;17.90;65.30
37658;DHT22;23500;53.268;8.308;2023-06-04T03:49:08;17.90;65.30
37658;DHT22;23500;53.268;8.308;2023-06-04T03:51:34;17.90;65.30
37658;DHT22;23500;53.268;8.308;2023-06-04T03:54:00;17.90;65.50
37658;DHT22;23500;53.268;8.308;2023-06-04T03:56:25;17.90;65.50
37658;DHT22;23500;53.268;8.308;2023-06-04T03:58:54;17.90;65.80
37658;DHT22;23500;53.268;8.308;2023-06-04T04:01:21;17.90;65.80
37658;DHT22;23500;53.268;8.308;2023-06-04T04:03:46;17.90;65.80
37658;DHT22;23500;53.268;8.308;2023-06-04T04:06:15;17.90;66.00
37658;DHT22;23500;53.268;8.308;2023-06-04T04:08:41;17.90;66.00
37658;DHT22;23500;53.268;8.308;2023-06-04T04:11:14;17.90;66.00
37658;DHT22;23500;53.268;8.308;2023-06-04T04:13:40;17.90;66.20
37658;DHT22;23500;53.268;8.308;2023-06-04T04:16:06;17.80;66.30
37658;DHT22;23500;53.268;8.308;2023-06-04T04:18:35;17.90;66.60
37658;DHT22;23500;53.268;8.308;2023-06-04T04:21:02;17.90;66.70
37658;DHT22;23500;53.268;8.308;2023-06-04T04:23:29;17.90;66.50
37658;DHT22;23500;53.268;8.308;2023-06-04T04:25:55;17.90;66.60
37658;DHT22;23500;53.268;8.308;2023-06-04T04:28:24;17.90;66.50
37658;DHT22;23500;53.268;8.308;2023-06-04T04:30:57;17.90;66.20
37658;DHT22;23500;53.268;8.308;2023-06-04T04:33:23;17.90;66.60
37658;DHT22;23500;53.268;8.308;2023-06-04T04:35:52;17.90;66.40
37658;DHT22;23500;53.268;8.308;2023-06-04T04:38:21;18.00;66.60
37658;DHT22;23500;53.268;8.308;2023-06-04T04:40:49;18.00;66.80
37658;DHT22;23500;53.268;8.308;2023-06-04T04:43:29;18.00;66.70
37658;DHT22;23500;53.268;8.308;2023-06-04T04:45:55;18.00;66.90
37658;DHT22;23500;53.268;8.308;2023-06-04T04:48:20;18.00;66.50
37658;DHT22;23500;53.268;8.308;2023-06-04T04:50:46;18.10;66.60
37658;DHT22;23500;53.268;8.308;2023-06-04T04:53:11;18.10;66.50
37658;DHT22;23500;53.268;8.308;2023-06-04T04:55:37;18.10;66.40
37658;DHT22;23500;53.268;8.308;2023-06-04T04:58:03;18.10;66.40
37658;DHT22;23500;53.268;8.308;2023-06-04T05:00:29;18.20;66.50
37658;DHT22;23500;53.268;8.308;2023-06-04T05:02:55;18.20;67.20
37658;DHT22;23500;53.268;8.308;2023-06-04T05:05:21;18.20;66.40
37658;DHT22;23500;53.268;8.308;2023-06-04T05:07:47;18.30;66.50
37658;DHT22;23500;53.268;8.308;2023-06-04T05:10:12;18.30;66.70
37658;DHT22;23500;53.268;8.308;2023-06-04T05:12:38;18.30;67.30
37658;DHT22;23500;53.268;8.308;2023-06-04T05:15:04;18.30;66.40
37658;DHT22;23500;53.268;8.308;2023-06-04T05:17:30;18.40;66.60
37658;DHT22;23500;53.268;8.308;2023-06-04T05:19:56;18.40;66.30
37658;DHT22;23500;53.268;8.308;2023-06-04T05:22:37;18.40;66.40
37658;DHT22;23500;53.268;8.308;2023-06-04T05:25:03;18.40;66.20
37658;DHT22;23500;53.268;8.308;2023-06-04T05:27:29;18.50;66.10
37658;DHT22;23500;53.268;8.308;2023-06-04T05:29:59;18.50;65.80
37658;DHT22;23500;53.268;8.308;2023-06-04T05:32:26;18.50;65.50
37658;DHT22;23500;53.268;8.308;2023-06-04T05:34:54;18.60;65.90
37658;DHT22;23500;53.268;8.308;2023-06-04T05:37:25;18.60;65.60
37658;DHT22;23500;53.268;8.308;2023-06-04T05:39:55;18.70;65.70
37658;DHT22;23500;53.268;8.308;2023-06-04T05:42:22;18.70;65.40
37658;DHT22;23500;53.268;8.308;2023-06-04T05:44:48;18.70;65.60
37658;DHT22;23500;53.268;8.308;2023-06-04T05:47:14;18.70;66.00
37658;DHT22;23500;53.268;8.308;2023-06-04T05:49:40;18.80;65.30
37658;DHT22;23500;53.268;8.308;2023-06-04T05:52:06;18.80;65.10
37658;DHT22;23500;53.268;8.308;2023-06-04T05:54:31;18.90;65.00
37658;DHT22;23500;53.268;8.308;2023-06-04T05:56:58;18.90;64.90
37658;DHT22;23500;53.268;8.308;2023-06-04T05:59:24;18.90;64.70
37658;DHT22;23500;53.268;8.308;2023-06-04T06:01:50;18.90;64.50
37658;DHT22;23500;53.268;8.308;2023-06-04T06:04:15;18.90;64.70
37658;DHT22;23500;53.268;8.308;2023-06-04T06:06:42;19.00;64.60
37658;DHT22;23500;53.268;8.308;2023-06-04T06:09:12;19.00;64.50
37658;DHT22;23500;53.268;8.308;2023-06-04T06:11:38;19.00;64.60
37658;DHT22;23500;53.268;8.308;2023-06-04T06:14:03;19.00;64.60
37658;DHT22;23500;53.268;8.308;2023-06-04T06:16:29;19.10;64.30
37658;DHT22;23500;53.268;8.308;2023-06-04T06:18:55;19.10;64.30
37658;DHT22;23500;53.268;8.308;2023-06-04T06:21:21;19.10;64.50
37658;DHT22;23500;53.268;8.308;2023-06-04T06:23:46;19.10;64.60
37658;DHT22;23500;53.268;8.308;2023-06-04T06:26:12;19.20;64.60
37658;DHT22;23500;53.268;8.308;2023-06-04T06:28:39;19.20;64.80
37658;DHT22;23500;53.268;8.308;2023-06-04T06:31:05;19.20;64.70
37658;DHT22;23500;53.268;8.308;2023-06-04T06:33:31;19.30;64.80
37658;DHT22;23500;53.268;8.308;2023-06-04T06:35:57;19.30;64.70
37658;DHT22;23500;53.268;8.308;2023-06-04T06:38:26;19.30;64.70
37658;DHT22;23500;53.268;8.308;2023-06-04T06:40:52;19.40;64.80
37658;DHT22;23500;53.268;8.308;2023-06-04T06:43:18;19.40;64.60
37658;DHT22;23500;53.268;8.308;2023-06-04T06:45:43;19.40;64.50
37658;DHT22;23500;53.268;8.308;2023-06-04T06:48:09;19.50;64.40
37658;DHT22;23500;53.268;8.308;2023-06-04T06:50:35;19.50;64.40
37658;DHT22;23500;53.268;8.308;2023-06-04T06:53:03;19.50;64.40
37658;DHT22;23500;53.268;8.308;2023-06-04T06:55:29;19.50;64.40
37658;DHT22;23500;53.268;8.308;2023-06-04T06:57:55;19.50;64.30
37658;DHT22;23500;53.268;8.308;2023-06-04T07:00:21;19.50;64.30
37658;DHT22;23500;53.268;8.308;2023-06-04T07:02:46;19.60;64.20
37658;DHT22;23500;53.268;8.308;2023-06-04T07:05:13;19.60;64.10
37658;DHT22;23500;53.268;8.308;2023-06-04T07:07:40;19.60;64.10
37658;DHT22;23500;53.268;8.308;2023-06-04T07:10:06;19.60;64.10
37658;DHT22;23500;53.268;8.308;2023-06-04T07:12:32;19.60;64.00
37658;DHT22;23500;53.268;8.308;2023-06-04T07:14:57;19.60;63.90
37658;DHT22;23500;53.268;8.308;2023-06-04T07:17:23;19.70;64.00
37658;DHT22;23500;53.268;8.308;2023-06-04T07:19:48;19.70;63.80
37658;DHT22;23500;53.268;8.308;2023-06-04T07:22:14;19.70;63.80
37658;DHT22;23500;53.268;8.308;2023-06-04T07:24:42;19.70;63.70
37658;DHT22;23500;53.268;8.308;2023-06-04T07:27:12;19.70;63.60
37658;DHT22;23500;53.268;8.308;2023-06-04T07:29:38;19.70;63.60
37658;DHT22;23500;53.268;8.308;2023-06-04T07:32:04;19.70;63.60
37658;DHT22;23500;53.268;8.308;2023-06-04T07:34:30;19.70;63.50
37658;DHT22;23500;53.268;8.308;2023-06-04T07:36:56;19.80;63.50
37658;DHT22;23500;53.268;8.308;2023-06-04T07:39:21;19.80;63.50
37658;DHT22;23500;53.268;8.308;2023-06-04T07:41:47;19.80;63.40
37658;DHT22;23500;53.268;8.308;2023-06-04T07:44:13;19.80;63.30
37658;DHT22;23500;53.268;8.308;2023-06-04T07:46:38;19.80;63.30
37658;DHT22;23500;53.268;8.308;2023-06-04T07:49:04;19.80;63.30
37658;DHT22;23500;53.268;8.308;2023-06-04T07:51:30;19.80;63.20
37658;DHT22;23500;53.268;8.308;2023-06-04T07:53:56;19.80;63.20
37658;DHT22;23500;53.268;8.308;2023-06-04T07:56:22;19.80;63.20
37658;DHT22;23500;53.268;8.308;2023-06-04T07:58:47;19.80;63.10
37658;DHT22;23500;53.268;8.308;2023-06-04T08:01:13;19.80;63.10
37658;DHT22;23500;53.268;8.308;2023-06-04T08:03:39;19.90;63.00
37658;DHT22;23500;53.268;8.308;2023-06-04T08:06:07;19.90;63.00
37658;DHT22;23500;53.268;8.308;2023-06-04T08:08:32;19.90;63.00
37658;DHT22;23500;53.268;8.308;2023-06-04T08:10:59;19.90;62.90
37658;DHT22;23500;53.268;8.308;2023-06-04T08:13:25;19.90;62.90
37658;DHT22;23500;53.268;8.308;2023-06-04T08:15:51;19.90;62.90
37658;DHT22;23500;53.268;8.308;2023-06-04T08:18:17;19.90;62.80
37658;DHT22;23500;53.268;8.308;2023-06-04T08:20:42;19.90;62.80
37658;DHT22;23500;53.268;8.308;2023-06-04T08:23:08;19.90;62.70
37658;DHT22;23500;53.268;8.308;2023-06-04T08:25:34;19.90;62.70
37658;DHT22;23500;53.268;8.308;2023-06-04T08:27:59;20.00;62.70
37658;DHT22;23500;53.268;8.308;2023-06-04T08:30:25;20.00;62.70
37658;DHT22;23500;53.268;8.308;2023-06-04T08:32:53;20.00;62.70
37658;DHT22;23500;53.268;8.308;2023-06-04T08:35:19;20.00;62.70
37658;DHT22;23500;53.268;8.308;2023-06-04T08:37:44;20.00;62.70
37658;DHT22;23500;53.268;8.308;2023-06-04T08:40:11;20.00;62.70
37658;DHT22;23500;53.268;8.308;2023-06-04T08:42:43;20.00;62.60
37658;DHT22;23500;53.268;8.308;2023-06-04T08:45:13;20.00;62.70
37658;DHT22;23500;53.268;8.308;2023-06-04T08:47:49;20.00;62.80
37658;DHT22;23500;53.268;8.308;2023-06-04T08:50:17;20.00;62.70
37658;DHT22;23500;53.268;8.308;2023-06-04T08:52:44;20.00;62.90
37658;DHT22;23500;53.268;8.308;2023-06-04T08:55:11;20.10;62.90
37658;DHT22;23500;53.268;8.308;2023-06-04T08:57:39;20.20;62.70
37658;DHT22;23500;53.268;8.308;2023-06-04T09:00:07;20.20;62.60
37658;DHT22;23500;53.268;8.308;2023-06-04T09:02:36;20.30;62.40
37658;DHT22;23500;53.268;8.308;2023-06-04T09:05:06;20.30;62.30
37658;DHT22;23500;53.268;8.308;2023-06-04T09:07:36;20.30;62.20
37658;DHT22;23500;53.268;8.308;2023-06-04T09:10:04;20.40;62.10
37658;DHT22;23500;53.268;8.308;2023-06-04T09:12:32;20.40;62.00
37658;DHT22;23500;53.268;8.308;2023-06-04T09:14:58;20.50;61.80
37658;DHT22;23500;53.268;8.308;2023-06-04T09:17:24;20.50;61.50
37658;DHT22;23500;53.268;8.308;2023-06-04T09:19:51;20.50;61.40
37658;DHT22;23500;53.268;8.308;2023-06-04T09:22:17;20.60;61.20
37658;DHT22;23500;53.268;8.308;2023-06-04T09:24:44;20.60;61.20
37658;DHT22;23500;53.268;8.308;2023-06-04T09:27:16;20.60;61.10
37658;DHT22;23500;53.268;8.308;2023-06-04T09:29:58;20.60;61.00
37658;DHT22;23500;53.268;8.308;2023-06-04T09:32:24;20.60;61.00
37658;DHT22;23500;53.268;8.308;2023-06-04T09:34:50;20.60;61.00
37658;DHT22;23500;53.268;8.308;2023-06-04T09:37:16;20.60;61.00
37658;DHT22;23500;53.268;8.308;2023-06-04T09:39:55;20.60;60.90
37658;DHT22;23500;53.268;8.308;2023-06-04T09:42:21;20.60;60.90
37658;DHT22;23500;53.268;8.308;2023-06-04T09:44:47;20.60;60.80
37658;DHT22;23500;53.268;8.308;2023-06-04T09:47:14;20.60;60.80
37658;DHT22;23500;53.268;8.308;2023-06-04T09:49:46;20.70;60.90
37658;DHT22;23500;53.268;8.308;2023-06-04T09:52:13;20.70;60.90
37658;DHT22;23500;53.268;8.308;2023-06-04T09:54:40;20.60;60.70
37658;DHT22;23500;53.268;8.308;2023-06-04T09:57:16;20.70;60.80
37658;DHT22;23500;53.268;8.308;2023-06-04T09:59:48;20.70;60.80
37658;DHT22;23500;53.268;8.308;2023-06-04T10:02:20;20.70;60.80
37658;DHT22;23500;53.268;8.308;2023-06-04T10:04:52;20.70;60.70
37658;DHT22;23500;53.268;8.308;2023-06-04T10:07:19;20.70;60.70
37658;DHT22;23500;53.268;8.308;2023-06-04T10:09:46;20.70;60.80
37658;DHT22;23500;53.268;8.308;2023-06-04T10:12:16;20.70;60.70
37658;DHT22;23500;53.268;8.308;2023-06-04T10:14:50;20.70;60.70
37658;DHT22;23500;53.268;8.308;2023-06-04T10:17:17;20.70;60.80
37658;DHT22;23500;53.268;8.308;2023-06-04T10:19:45;20.70;60.80
37658;DHT22;23500;53.268;8.308;2023-06-04T10:22:12;20.70;60.70
37658;DHT22;23500;53.268;8.308;2023-06-04T10:24:38;20.80;60.80
37658;DHT22;23500;53.268;8.308;2023-06-04T10:27:04;20.70;60.60
37658;DHT22;23500;53.268;8.308;2023-06-04T10:29:36;20.80;60.70
37658;DHT22;23500;53.268;8.308;2023-06-04T10:32:02;20.80;60.60
37658;DHT22;23500;53.268;8.308;2023-06-04T10:34:28;20.80;60.50
37658;DHT22;23500;53.268;8.308;2023-06-04T10:36:54;20.80;60.50
37658;DHT22;23500;53.268;8.308;2023-06-04T10:39:27;20.80;60.50
37658;DHT22;23500;53.268;8.308;2023-06-04T10:42:03;20.80;60.60
37658;DHT22;23500;53.268;8.308;2023-06-04T10:44:31;20.90;60.60
37658;DHT22;23500;53.268;8.308;2023-06-04T10:46:58;20.80;60.60
37658;DHT22;23500;53.268;8.308;2023-06-04T10:49:28;20.90;60.70
37658;DHT22;23500;53.268;8.308;2023-06-04T10:51:54;20.90;60.60
37658;DHT22;23500;53.268;8.308;2023-06-04T10:54:25;20.90;60.60
37658;DHT22;23500;53.268;8.308;2023-06-04T10:56:51;20.90;60.50
37658;DHT22;23500;53.268;8.308;2023-06-04T10:59:18;20.90;60.40
37658;DHT22;23500;53.268;8.308;2023-06-04T11:01:44;21.00;60.40
37658;DHT22;23500;53.268;8.308;2023-06-04T11:06:45;21.00;60.30
37658;DHT22;23500;53.268;8.308;2023-06-04T11:09:13;21.00;60.40
37658;DHT22;23500;53.268;8.308;2023-06-04T11:11:44;21.00;60.40
37658;DHT22;23500;53.268;8.308;2023-06-04T11:14:11;20.90;60.40
37658;DHT22;23500;53.268;8.308;2023-06-04T11:16:38;20.90;60.50
37658;DHT22;23500;53.268;8.308;2023-06-04T11:19:05;20.90;60.60
37658;DHT22;23500;53.268;8.308;2023-06-04T11:21:33;20.90;60.60
37658;DHT22;23500;53.268;8.308;2023-06-04T11:23:59;20.90;60.60
37658;DHT22;23500;53.268;8.308;2023-06-04T11:26:36;20.90;60.70
37658;DHT22;23500;53.268;8.308;2023-06-04T11:29:06;20.90;60.70
37658;DHT22;23500;53.268;8.308;2023-06-04T11:31:46;20.90;60.80
37658;DHT22;23500;53.268;8.308;2023-06-04T11:34:29;20.90;60.70
37658;DHT22;23500;53.268;8.308;2023-06-04T11:36:55;20.90;60.70
37658;DHT22;23500;53.268;8.308;2023-06-04T11:39:34;20.80;60.70
37658;DHT22;23500;53.268;8.308;2023-06-04T11:42:05;20.90;60.70
37658;DHT22;23500;53.268;8.308;2023-06-04T11:44:31;20.80;60.70
37658;DHT22;23500;53.268;8.308;2023-06-04T11:46:57;20.80;60.70
37658;DHT22;23500;53.268;8.308;2023-06-04T11:49:22;20.90;60.80
37658;DHT22;23500;53.268;8.308;2023-06-04T11:51:49;20.90;60.80
37658;DHT22;23500;53.268;8.308;2023-06-04T11:54:16;20.90;60.80
37658;DHT22;23500;53.268;8.308;2023-06-04T11:56:42;20.80;60.60
37658;DHT22;23500;53.268;8.308;2023-06-04T11:59:15;20.90;60.70
37658;DHT22;23500;53.268;8.308;2023-06-04T12:01:42;20.80;60.60
37658;DHT22;23500;53.268;8.308;2023-06-04T12:04:18;20.90;60.70
37658;DHT22;23500;53.268;8.308;2023-06-04T12:06:57;20.90;60.60
37658;DHT22;23500;53.268;8.308;2023-06-04T12:09:28;20.90;60.60
37658;DHT22;23500;53.268;8.308;2023-06-04T12:11:58;20.90;60.60
37658;DHT22;23500;53.268;8.308;2023-06-04T12:14:25;20.90;60.60
37658;DHT22;23500;53.268;8.308;2023-06-04T12:16:58;20.90;60.60
37658;DHT22;23500;53.268;8.308;2023-06-04T12:19:24;20.90;60.60
37658;DHT22;23500;53.268;8.308;2023-06-04T12:22:05;20.90;60.60
37658;DHT22;23500;53.268;8.308;2023-06-04T12:24:45;20.90;60.60
37658;DHT22;23500;53.268;8.308;2023-06-04T12:27:11;20.90;60.70
37658;DHT22;23500;53.268;8.308;2023-06-04T12:29:37;20.90;60.60
37658;DHT22;23500;53.268;8.308;2023-06-04T12:32:07;20.90;60.70
37658;DHT22;23500;53.268;8.308;2023-06-04T12:34:36;20.90;61.40
37658;DHT22;23500;53.268;8.308;2023-06-04T12:37:02;20.90;60.60
37658;DHT22;23500;53.268;8.308;2023-06-04T12:39:35;20.90;60.60
37658;DHT22;23500;53.268;8.308;2023-06-04T12:42:02;20.90;60.60
37658;DHT22;23500;53.268;8.308;2023-06-04T12:44:28;20.90;60.70
37658;DHT22;23500;53.268;8.308;2023-06-04T12:46:54;20.90;60.70
37658;DHT22;23500;53.268;8.308;2023-06-04T12:49:20;20.90;60.60
37658;DHT22;23500;53.268;8.308;2023-06-04T12:51:46;20.90;60.60
37658;DHT22;23500;53.268;8.308;2023-06-04T12:54:12;20.90;60.50
37658;DHT22;23500;53.268;8.308;2023-06-04T12:56:38;20.90;60.60
37658;DHT22;23500;53.268;8.308;2023-06-04T12:59:04;21.00;60.60
37658;DHT22;23500;53.268;8.308;2023-06-04T13:01:35;20.90;60.60
37658;DHT22;23500;53.268;8.308;2023-06-04T13:04:03;21.00;60.70
37658;DHT22;23500;53.268;8.308;2023-06-04T13:06:28;20.90;60.60
37658;DHT22;23500;53.268;8.308;2023-06-04T13:08:54;20.90;60.60
37658;DHT22;23500;53.268;8.308;2023-06-04T13:11:20;20.90;60.60
37658;DHT22;23500;53.268;8.308;2023-06-04T13:13:47;20.90;60.60
37658;DHT22;23500;53.268;8.308;2023-06-04T13:16:13;20.90;60.60
37658;DHT22;23500;53.268;8.308;2023-06-04T13:18:39;20.90;60.60
37658;DHT22;23500;53.268;8.308;2023-06-04T13:21:04;20.90;60.50
37658;DHT22;23500;53.268;8.308;2023-06-04T13:23:30;20.90;60.50
37658;DHT22;23500;53.268;8.308;2023-06-04T13:25:56;20.90;60.60
37658;DHT22;23500;53.268;8.308;2023-06-04T13:28:21;20.90;60.50
37658;DHT22;23500;53.268;8.308;2023-06-04T13:30:48;20.90;60.60
37658;DHT22;23500;53.268;8.308;2023-06-04T13:33:13;20.90;60.50
37658;DHT22;23500;53.268;8.308;2023-06-04T13:35:39;20.90;60.50
37658;DHT22;23500;53.268;8.308;2023-06-04T13:38:05;20.80;60.50
37658;DHT22;23500;53.268;8.308;2023-06-04T13:40:35;20.90;60.50
37658;DHT22;23500;53.268;8.308;2023-06-04T13:43:01;20.80;60.30
37658;DHT22;23500;53.268;8.308;2023-06-04T13:45:26;20.80;60.30
37658;DHT22;23500;53.268;8.308;2023-06-04T13:47:52;20.80;60.40
37658;DHT22;23500;53.268;8.308;2023-06-04T13:50:18;20.80;60.30
37658;DHT22;23500;53.268;8.308;2023-06-04T13:52:44;20.80;60.30
37658;DHT22;23500;53.268;8.308;2023-06-04T13:55:11;20.80;61.00
37658;DHT22;23500;53.268;8.308;2023-06-04T13:57:37;20.80;60.30
37658;DHT22;23500;53.268;8.308;2023-06-04T14:00:03;20.80;60.30
37658;DHT22;23500;53.268;8.308;2023-06-04T14:02:30;20.80;60.30
37658;DHT22;23500;53.268;8.308;2023-06-04T14:04:55;20.80;60.30
37658;DHT22;23500;53.268;8.308;2023-06-04T14:07:21;20.80;60.00
37658;DHT22;23500;53.268;8.308;2023-06-04T14:09:47;20.80;60.20
37658;DHT22;23500;53.268;8.308;2023-06-04T14:12:14;20.80;60.30
37658;DHT22;23500;53.268;8.308;2023-06-04T14:14:44;20.80;60.20
37658;DHT22;23500;53.268;8.308;2023-06-04T14:17:10;20.80;60.30
37658;DHT22;23500;53.268;8.308;2023-06-04T14:19:35;20.80;60.20
37658;DHT22;23500;53.268;8.308;2023-06-04T14:22:02;20.80;60.20
37658;DHT22;23500;53.268;8.308;2023-06-04T14:24:27;20.80;60.20
37658;DHT22;23500;53.268;8.308;2023-06-04T14:26:53;20.80;61.00
37658;DHT22;23500;53.268;8.308;2023-06-04T14:29:19;20.80;60.30
37658;DHT22;23500;53.268;8.308;2023-06-04T14:31:45;20.80;60.30
37658;DHT22;23500;53.268;8.308;2023-06-04T14:34:11;20.80;60.20
37658;DHT22;23500;53.268;8.308;2023-06-04T14:36:37;20.80;60.30
37658;DHT22;23500;53.268;8.308;2023-06-04T14:39:02;20.80;60.30
37658;DHT22;23500;53.268;8.308;2023-06-04T14:41:28;20.80;60.30
37658;DHT22;23500;53.268;8.308;2023-06-04T14:43:54;20.80;60.30
37658;DHT22;23500;53.268;8.308;2023-06-04T14:46:19;20.80;60.30
37658;DHT22;23500;53.268;8.308;2023-06-04T14:48:45;20.80;60.30
37658;DHT22;23500;53.268;8.308;2023-06-04T14:51:11;20.80;60.30
37658;DHT22;23500;53.268;8.308;2023-06-04T14:53:36;20.80;60.30
37658;DHT22;23500;53.268;8.308;2023-06-04T14:56:05;20.80;60.40
37658;DHT22;23500;53.268;8.308;2023-06-04T14:58:31;20.80;60.40
37658;DHT22;23500;53.268;8.308;2023-06-04T15:00:59;20.80;60.30
37658;DHT22;23500;53.268;8.308;2023-06-04T15:03:25;20.80;60.20
37658;DHT22;23500;53.268;8.308;2023-06-04T15:05:52;20.70;60.10
37658;DHT22;23500;53.268;8.308;2023-06-04T15:08:19;20.70;60.30
37658;DHT22;23500;53.268;8.308;2023-06-04T15:10:45;20.70;60.30
37658;DHT22;23500;53.268;8.308;2023-06-04T15:13:11;20.70;60.30
37658;DHT22;23500;53.268;8.308;2023-06-04T15:15:36;20.70;60.30
37658;DHT22;23500;53.268;8.308;2023-06-04T15:18:02;20.70;60.30
37658;DHT22;23500;53.268;8.308;2023-06-04T15:20:28;20.70;60.30
37658;DHT22;23500;53.268;8.308;2023-06-04T15:22:54;20.70;60.20
37658;DHT22;23500;53.268;8.308;2023-06-04T15:25:20;20.70;60.20
37658;DHT22;23500;53.268;8.308;2023-06-04T15:27:46;20.70;60.20
37658;DHT22;23500;53.268;8.308;2023-06-04T15:30:12;20.70;60.20
37658;DHT22;23500;53.268;8.308;2023-06-04T15:32:37;20.70;60.20
37658;DHT22;23500;53.268;8.308;2023-06-04T15:35:04;20.70;60.30
37658;DHT22;23500;53.268;8.308;2023-06-04T15:37:30;20.70;60.30